Almeria, NE

2:53 AM CST on December 26, 2014 (GMT -0600)
Sargent | Change Station
CLOSE
Current Station
Personal Weather Station
Location: Sargent, NE
Elevation: 2314 ft
Nearby Weather Stations

Elev 2314 ft 41.64 °N, 99.38 °W | Updated 9 minutes ago

Overcast
Overcast
25.6 °F
Feels Like 15 °F
N
11.0
Wind Variable Wind from North
Gusts 16.0 mph

Today
High -- | Low -- °F
--% Chance of Precip.
Yesterday
High -- | Low -- °F
Precip. -- in
8:04 AM 5:12 PM
Waxing Crescent, 24% visible
Pressure 29.94 in
Visibility 10.0 miles
Clouds Overcast 900 ft
Windchill 15 °F
Dew Point 24 °F
Humidity 92%
Rainfall 0.00 in
Snow Depth Not available.
UV 0 out of 12
Pollen .10 out of 12
Air Quality Not available.
Flu Activity Not available.
METAR KODX 260753Z AUTO 35019G25KT 10SM OVC009 M03/M05 A2988 RMK AO2 PK WND 36026/0730 SLP139 T10281050

More Conditions Fewer Conditions

Pressure 29.94 in
Visibility 10.0 miles
Clouds Overcast 900 ft
Windchill 15 °F
Dew Point 24 °F
Humidity 92%
Rainfall 0.00 in
Snow Depth Not available.
UV 0 out of 12
Pollen .10 out of 12
Air Quality Not available.
Flu Activity Not available.
METAR KODX 260753Z AUTO 35019G25KT 10SM OVC009 M03/M05 A2988 RMK AO2 PK WND 36026/0730 SLP139 T10281050

More Conditions Fewer Conditions

10-Day Weather Forecast

Almanac

Astronomy

Dec. 26, 2014 Rise Set
Actual Time
Civil Twilight
Nautical Twilight
Astronomical Twilight
Moon
Length of Visible Light
Length of Day
Tomorrow will be .
, % of the Moon is Illuminated

Today's Extremes

State Highs State Lows

Community

WunderPhotos

Upload Photos

1,780,568 photos uploaded!

WunderBlogs® & News

Nearby

Air Quality

  Air Quality AQ Index Pollutant
Not available.

Snow Depth

Station Depth Elevation

Earthquake Activity

City Distance Mag. Time & Date
Minimum magnitude displayed is 2.5.

Coastal Water Temperatures

Place Temperature

Nearby Weather Stations